Aeroporto :
LOGIN :

Iscrizione | Disclaimer

   EN    FR    IT 

 










Sommario :    VFR   VFR Marginale   IFR   IFR Intensivo   IFR Molto Intensivo
Visibilità : 
Base nubi : 
>= 8 km
>= 3000ft
5 / 8 km
1000 / 3000 ft
1500m / 5 km
500 / 1000 ft
800 / 1500m
200 / 500 ft
< 800m
< 200 ft
Simboli :   Temporali  Nebbia  Neve Forte  Precipitazioni Forti  Vento > 20 kt
SIGMETs :   Varie  Temporali  Ghiacco  Turbolenza  Onda orograficha  Ceneri Vulcaniche






- Altitudine del aeroporto : 20 ft


EBFN - Koksijde

ULTIMO METAR :
  • 010655Z 17012KT 4000 BKN007 BKN030 14/13 Q0997 GRN GRN TEMPO YLO

METARs OBSOLETI :
  • 010625Z 16012KT 6000 BKN007 BKN030 14/13 Q0998 GRN GRN TEMPO YLO
  • 010555Z 17012KT 6000 BKN007 BKN023 14/13 Q0998 GRN GRN TEMPO YLO
  • 010455Z 16012KT 8000 FEW009 BKN020 14/13 Q0999 WHT BLU TEMPO GRN
  • 010450Z 16011KT 8000 FEW009 BKN023 14/13 Q0999 WHT BLU TEMPO GRN
  • 010425Z AUTO 16012KT 9999 -RA SCT038/// OVC071/// 14/13 Q0999 BLU

TAF TAF EBFN
Valido dal 01 a 07 ore il 01 a 16 ore UTC


010541Z 0107/0116 26010KT 6000 -RA BKN010
TEMPO 0107/0109 4000 RA BKN007
BECMG 0107/0109 9999 NSW SCT060
TEMPO 0108/0116 4000 SHRA SCT015TCU
PROB30
TEMPO 0111/0116 26012G25KT 2000 TSRA BKN010CB



MetMap, La meteo Aeronautica in un colpo d'occhio ! - Copyright ORBIFLY Dicembre 2007 - Disclaimer

ORBIFLY MET'MAP TEAM :

Programmazione e sviluppo : Alexandra Zaïnal
Concezione : Baudouin d'Aumeries
Aiuto per la programmazione : Marc-Olivier Méhu
Supporto tecnico e logistico : Manuel Goepfert
Aiuto per la traduzione : Arnaldo La Scala

Contatto : metmap@orbifly.com




FONTI E CREDITI :

   NOAA